createdAt,value
2019-05-30T00:00:42.882Z,66.20
2019-05-30T00:03:14.349Z,66.20
2019-05-30T00:05:45.816Z,66.40
2019-05-30T00:08:17.297Z,66.60
2019-05-30T00:10:48.623Z,66.50
2019-05-30T00:13:20.014Z,66.80
2019-05-30T00:15:51.886Z,67.10
2019-05-30T00:18:23.253Z,67.20
2019-05-30T00:20:54.737Z,67.50
2019-05-30T00:23:26.102Z,68.80
2019-05-30T00:25:57.611Z,69.00
2019-05-30T00:28:28.900Z,69.20
2019-05-30T00:31:02.560Z,69.40
2019-05-30T00:33:34.511Z,69.50
2019-05-30T00:36:06.357Z,69.60
2019-05-30T00:38:39.510Z,69.80
2019-05-30T00:41:10.896Z,70.00
2019-05-30T00:43:42.385Z,70.20
2019-05-30T00:46:14.401Z,70.20
2019-05-30T00:48:46.757Z,70.40
2019-05-30T00:51:19.082Z,70.60
2019-05-30T00:53:50.408Z,70.60
2019-05-30T00:56:21.938Z,70.80
2019-05-30T00:58:53.258Z,71.00
2019-05-30T01:01:24.597Z,71.10
2019-05-30T01:03:58.623Z,71.30
2019-05-30T01:06:30.199Z,71.40
2019-05-30T01:09:01.481Z,71.50
2019-05-30T01:11:34.849Z,71.80
2019-05-30T01:14:07.508Z,71.90
2019-05-30T01:16:42.280Z,72.10
2019-05-30T01:19:12.044Z,72.10
2019-05-30T01:21:44.107Z,72.30
2019-05-30T01:24:16.462Z,72.50
2019-05-30T01:26:47.935Z,72.40
2019-05-30T01:29:26.835Z,73.60
2019-05-30T01:31:59.825Z,72.80
2019-05-30T01:34:31.531Z,72.70
2019-05-30T01:37:03.789Z,73.00
2019-05-30T01:39:35.555Z,73.10
2019-05-30T01:42:07.912Z,73.30
2019-05-30T01:44:40.120Z,73.20
2019-05-30T01:47:11.854Z,73.40
2019-05-30T01:49:44.969Z,73.50
2019-05-30T01:52:16.617Z,73.60
2019-05-30T01:54:49.817Z,73.70
2019-05-30T01:57:22.446Z,73.90
2019-05-30T01:59:54.049Z,73.90
2019-05-30T02:02:25.394Z,74.10
2019-05-30T02:04:58.900Z,74.20
2019-05-30T02:07:30.278Z,74.30
2019-05-30T02:10:01.839Z,74.40
2019-05-30T02:12:35.656Z,74.40
2019-05-30T02:15:09.834Z,74.60
2019-05-30T02:17:41.550Z,74.80
2019-05-30T02:20:14.565Z,74.70
2019-05-30T02:22:45.750Z,74.70
2019-05-30T02:25:17.065Z,74.70
2019-05-30T02:27:48.407Z,74.80
2019-05-30T02:30:20.968Z,75.10
2019-05-30T02:32:52.523Z,75.10
2019-05-30T02:35:24.085Z,75.40
2019-05-30T02:37:58.668Z,75.40
2019-05-30T02:40:31.480Z,75.60
2019-05-30T02:43:07.625Z,75.60
2019-05-30T02:45:39.769Z,75.80
2019-05-30T02:48:12.188Z,75.80
2019-05-30T02:50:44.242Z,76.10
2019-05-30T02:53:15.560Z,76.10
2019-05-30T02:55:46.971Z,76.30
2019-05-30T02:58:18.433Z,76.60
2019-05-30T03:00:50.885Z,76.70
2019-05-30T03:03:22.140Z,76.80
2019-05-30T03:05:53.705Z,77.10
2019-05-30T03:08:25.556Z,77.10
2019-05-30T03:10:57.024Z,77.20
2019-05-30T03:13:28.752Z,77.20
2019-05-30T03:16:01.959Z,77.10
2019-05-30T03:18:33.382Z,76.90
2019-05-30T03:21:05.700Z,76.60
2019-05-30T03:23:38.513Z,76.40
2019-05-30T03:26:10.899Z,76.10
2019-05-30T03:28:44.743Z,75.80
2019-05-30T03:31:27.975Z,75.40
2019-05-30T03:33:50.913Z,74.70
2019-05-30T03:36:29.548Z,73.20
2019-05-30T03:38:57.902Z,72.40
2019-05-30T03:41:29.390Z,71.60
2019-05-30T03:44:00.803Z,70.50
2019-05-30T03:46:36.339Z,69.40
2019-05-30T03:49:12.707Z,68.10
2019-05-30T03:51:45.195Z,66.70
2019-05-30T03:54:25.141Z,65.10
2019-05-30T03:57:01.982Z,63.70
2019-05-30T03:59:37.382Z,62.40
2019-05-30T04:02:23.178Z,61.20
2019-05-30T04:05:02.728Z,60.20
2019-05-30T04:07:41.855Z,59.40
2019-05-30T04:10:15.721Z,58.70
2019-05-30T04:13:02.929Z,57.90
2019-05-30T04:15:35.250Z,57.10
2019-05-30T04:18:08.947Z,56.30
2019-05-30T04:20:40.315Z,55.60
2019-05-30T04:23:12.602Z,54.80
2019-05-30T04:25:44.495Z,54.30
2019-05-30T04:28:18.718Z,53.70
2019-05-30T04:30:50.390Z,53.10
2019-05-30T04:33:32.747Z,52.60
2019-05-30T04:35:54.973Z,52.00
2019-05-30T04:38:26.295Z,51.00
2019-05-30T04:40:57.849Z,51.10
2019-05-30T04:43:29.181Z,50.70
2019-05-30T04:46:00.812Z,50.20
2019-05-30T04:48:32.658Z,49.30
2019-05-30T04:51:04.133Z,48.70
2019-05-30T04:53:35.666Z,48.30
2019-05-30T04:56:06.971Z,47.70
2019-05-30T04:58:42.282Z,48.10
2019-05-30T05:01:13.136Z,47.10
2019-05-30T05:03:46.766Z,46.70
2019-05-30T05:06:18.006Z,46.50
2019-05-30T05:08:49.769Z,46.00
2019-05-30T05:11:25.299Z,45.80
2019-05-30T05:13:56.535Z,45.00
2019-05-30T05:16:35.483Z,44.70
2019-05-30T05:19:00.796Z,44.50
2019-05-30T05:21:32.391Z,43.40
2019-05-30T05:24:03.755Z,43.20
2019-05-30T05:26:36.003Z,43.10
2019-05-30T05:29:07.399Z,43.00
2019-05-30T05:31:38.821Z,43.00
2019-05-30T05:34:12.429Z,42.90
2019-05-30T05:36:43.888Z,42.40
2019-05-30T05:39:16.123Z,42.20
2019-05-30T05:41:48.570Z,42.10
2019-05-30T05:44:20.343Z,41.90
2019-05-30T05:46:53.550Z,41.60
2019-05-30T05:49:26.255Z,41.50
2019-05-30T05:52:01.778Z,41.40
2019-05-30T05:54:33.881Z,41.00
2019-05-30T05:57:05.341Z,40.80
2019-05-30T05:59:36.732Z,39.60
2019-05-30T06:02:08.084Z,38.40
2019-05-30T06:04:42.153Z,38.10
2019-05-30T06:07:13.651Z,38.60
2019-05-30T06:09:45.341Z,38.40
2019-05-30T06:12:17.583Z,38.10
2019-05-30T06:14:48.990Z,38.40
2019-05-30T06:17:21.164Z,37.40
2019-05-30T06:19:52.870Z,37.50
2019-05-30T06:22:24.237Z,37.20
2019-05-30T06:24:55.505Z,36.80
2019-05-30T06:27:31.607Z,36.10
2019-05-30T06:30:03.297Z,35.00
2019-05-30T06:32:34.958Z,35.50
2019-05-30T06:35:07.263Z,36.10
2019-05-30T06:37:38.731Z,36.30
2019-05-30T06:40:10.718Z,35.20
2019-05-30T06:42:44.459Z,36.40
2019-05-30T06:45:15.948Z,35.00
2019-05-30T06:47:49.873Z,35.50
2019-05-30T06:50:20.891Z,35.40
2019-05-30T06:52:53.761Z,35.00
2019-05-30T06:55:25.220Z,34.20
2019-05-30T06:57:56.891Z,32.00
2019-05-30T07:00:28.374Z,32.60
2019-05-30T07:03:00.046Z,33.40
2019-05-30T07:05:34.698Z,32.90
2019-05-30T07:08:06.634Z,32.50
2019-05-30T07:10:38.419Z,32.90
2019-05-30T07:13:10.092Z,32.60
2019-05-30T07:15:41.486Z,32.10
2019-05-30T07:18:14.276Z,31.20
2019-05-30T07:20:45.509Z,30.30
2019-05-30T07:23:18.510Z,30.00
2019-05-30T07:25:51.530Z,30.00
2019-05-30T07:28:23.817Z,29.60
2019-05-30T07:30:55.402Z,29.40
2019-05-30T07:33:27.737Z,29.20
2019-05-30T07:35:59.522Z,28.00
2019-05-30T07:38:32.536Z,27.90
2019-05-30T07:41:04.003Z,28.30
2019-05-30T07:43:37.320Z,28.70
2019-05-30T07:46:08.926Z,28.40
2019-05-30T07:48:40.349Z,28.10
2019-05-30T07:51:12.412Z,28.30
2019-05-30T07:53:44.336Z,28.90
2019-05-30T07:56:15.815Z,29.30
2019-05-30T07:58:47.921Z,29.30
2019-05-30T08:01:19.516Z,29.00
2019-05-30T08:03:51.203Z,28.50
2019-05-30T08:06:24.754Z,28.50
2019-05-30T08:08:56.031Z,28.40
2019-05-30T08:11:28.708Z,27.10
2019-05-30T08:14:00.364Z,27.60
2019-05-30T08:16:33.135Z,28.20
2019-05-30T08:19:04.836Z,28.20
2019-05-30T08:21:36.414Z,28.20
2019-05-30T08:24:07.871Z,27.60
2019-05-30T08:26:39.413Z,27.20
2019-05-30T08:29:10.902Z,27.90
2019-05-30T08:31:42.432Z,28.10
2019-05-30T08:34:14.026Z,28.10
2019-05-30T08:36:48.151Z,26.90
2019-05-30T08:39:19.605Z,27.20
2019-05-30T08:41:51.204Z,27.90
2019-05-30T08:44:22.497Z,27.90
2019-05-30T08:46:54.107Z,28.10
2019-05-30T08:49:25.444Z,28.20
2019-05-30T08:51:56.774Z,28.20
2019-05-30T08:54:28.507Z,27.70
2019-05-30T08:57:00.517Z,27.40
2019-05-30T08:59:32.350Z,27.10
2019-05-30T09:02:05.180Z,27.40
2019-05-30T09:04:37.936Z,27.30
2019-05-30T09:07:11.550Z,27.20
2019-05-30T09:09:44.507Z,27.20
2019-05-30T09:12:16.221Z,27.30
2019-05-30T09:14:47.768Z,26.20
2019-05-30T09:17:19.145Z,27.00
2019-05-30T09:19:52.313Z,26.70
2019-05-30T09:22:23.912Z,25.60
2019-05-30T09:24:55.211Z,25.00
2019-05-30T09:27:26.703Z,25.70
2019-05-30T09:30:00.607Z,26.40
2019-05-30T09:32:33.102Z,26.40
2019-05-30T09:35:05.651Z,26.90
2019-05-30T09:37:37.082Z,27.70
2019-05-30T09:40:16.433Z,28.00
2019-05-30T09:42:49.065Z,28.50
2019-05-30T09:45:23.901Z,28.70
2019-05-30T09:47:55.260Z,28.90
2019-05-30T09:50:28.445Z,29.20
2019-05-30T09:52:59.818Z,28.60
2019-05-30T09:55:31.511Z,28.80
2019-05-30T09:58:04.856Z,28.70
2019-05-30T10:00:36.738Z,29.70
2019-05-30T10:03:13.304Z,30.10
2019-05-30T10:05:47.044Z,30.50
2019-05-30T10:08:21.969Z,31.50
2019-05-30T10:10:54.831Z,31.00
2019-05-30T10:13:26.226Z,31.10
2019-05-30T10:15:57.675Z,30.60
2019-05-30T10:18:29.516Z,31.50
2019-05-30T10:21:02.741Z,31.50
2019-05-30T10:23:34.653Z,32.00
2019-05-30T10:26:06.244Z,32.60
2019-05-30T10:28:37.826Z,32.40
2019-05-30T10:31:09.284Z,32.40
2019-05-30T10:33:42.782Z,31.90
2019-05-30T10:36:14.847Z,32.50
2019-05-30T10:38:49.062Z,32.60
2019-05-30T10:41:20.951Z,33.20
2019-05-30T10:43:53.693Z,33.30
2019-05-30T10:46:25.157Z,33.00
2019-05-30T10:48:56.865Z,33.00
2019-05-30T10:51:28.326Z,32.90
2019-05-30T10:53:59.907Z,32.00
2019-05-30T10:56:31.591Z,32.40
2019-05-30T10:59:03.225Z,32.70
2019-05-30T11:01:34.585Z,33.10
2019-05-30T11:04:09.017Z,33.50
2019-05-30T11:07:10.765Z,33.50
2019-05-30T11:09:37.742Z,33.60
2019-05-30T11:12:09.195Z,34.00
2019-05-30T11:14:40.715Z,33.80
2019-05-30T11:17:15.256Z,33.10
2019-05-30T11:19:47.618Z,33.00
2019-05-30T11:22:18.987Z,33.70
2019-05-30T11:24:52.737Z,34.20
2019-05-30T11:27:25.321Z,34.70
2019-05-30T11:29:56.954Z,35.00
2019-05-30T11:32:30.959Z,35.30
2019-05-30T11:35:03.710Z,35.30
2019-05-30T11:37:35.253Z,35.20
2019-05-30T11:40:07.117Z,35.30
2019-05-30T11:42:38.664Z,35.00
2019-05-30T11:45:10.067Z,34.30
2019-05-30T11:47:41.530Z,34.80
2019-05-30T11:50:13.543Z,34.80
2019-05-30T11:52:45.425Z,34.40
2019-05-30T11:55:17.218Z,35.00
2019-05-30T11:57:49.863Z,35.40
2019-05-30T12:00:22.358Z,35.50
2019-05-30T12:02:54.293Z,35.10
2019-05-30T12:05:26.546Z,35.50
2019-05-30T12:07:58.923Z,34.90
2019-05-30T12:10:31.008Z,34.80
2019-05-30T12:13:02.388Z,35.40
2019-05-30T12:15:34.255Z,35.20
2019-05-30T12:18:08.252Z,33.90
2019-05-30T12:20:39.869Z,35.10
2019-05-30T12:23:11.234Z,36.00
2019-05-30T12:25:42.698Z,34.80
2019-05-30T12:28:14.222Z,34.70
2019-05-30T12:30:55.928Z,35.00
2019-05-30T12:33:18.930Z,34.50
2019-05-30T12:35:50.327Z,34.50
2019-05-30T12:38:23.237Z,34.20
2019-05-30T12:40:56.717Z,33.90
2019-05-30T12:43:28.133Z,34.30
2019-05-30T12:46:03.300Z,34.30
2019-05-30T12:48:34.645Z,34.30
2019-05-30T12:51:06.503Z,34.00
2019-05-30T12:53:38.067Z,33.90
2019-05-30T12:56:09.429Z,34.00
2019-05-30T12:58:40.861Z,34.40
2019-05-30T13:01:13.517Z,34.60
2019-05-30T13:03:45.873Z,34.30
2019-05-30T13:06:17.445Z,34.10
2019-05-30T13:08:49.199Z,34.00
2019-05-30T13:11:22.371Z,34.30
2019-05-30T13:13:55.141Z,34.10
2019-05-30T13:16:29.982Z,33.90
2019-05-30T13:19:02.222Z,33.90
2019-05-30T13:21:34.306Z,34.00
2019-05-30T13:24:06.167Z,34.00
2019-05-30T13:26:38.190Z,33.70
2019-05-30T13:29:10.044Z,33.80
2019-05-30T13:31:43.129Z,33.50
2019-05-30T13:34:14.311Z,33.40
2019-05-30T13:36:45.900Z,33.60
2019-05-30T13:39:17.466Z,33.60
2019-05-30T13:41:48.878Z,33.60
2019-05-30T13:44:20.853Z,33.30
2019-05-30T13:46:52.514Z,33.00
2019-05-30T13:49:25.127Z,32.90
2019-05-30T13:51:58.916Z,32.70
2019-05-30T13:54:35.737Z,32.70
2019-05-30T13:57:07.928Z,32.60
2019-05-30T13:59:40.834Z,32.30
2019-05-30T14:02:14.500Z,31.80
2019-05-30T14:04:45.554Z,31.70
2019-05-30T14:07:20.852Z,32.00
2019-05-30T14:09:53.246Z,32.40
2019-05-30T14:12:25.111Z,32.50
2019-05-30T14:14:56.545Z,32.60
2019-05-30T14:17:27.829Z,33.60
2019-05-30T14:19:59.215Z,32.90
2019-05-30T14:22:33.983Z,33.10
2019-05-30T14:25:07.423Z,33.00
2019-05-30T14:27:42.130Z,33.10
2019-05-30T14:30:14.123Z,33.10
2019-05-30T14:32:46.009Z,33.10
2019-05-30T14:35:41.473Z,33.00
2019-05-30T14:38:15.235Z,33.20
2019-05-30T14:40:48.098Z,33.20
2019-05-30T14:43:19.592Z,33.50
2019-05-30T14:45:50.984Z,33.70
2019-05-30T14:48:22.578Z,33.80
2019-05-30T14:50:55.695Z,33.70
2019-05-30T14:53:27.069Z,33.80
2019-05-30T14:55:58.464Z,33.90
2019-05-30T14:58:30.409Z,34.20
2019-05-30T15:01:02.245Z,34.50
2019-05-30T15:03:35.244Z,34.70
2019-05-30T15:06:08.822Z,34.80
2019-05-30T15:08:39.987Z,34.40
2019-05-30T15:11:11.794Z,34.20
2019-05-30T15:13:43.796Z,34.50
2019-05-30T15:16:15.172Z,34.70
2019-05-30T15:18:46.467Z,34.80
2019-05-30T15:21:17.743Z,34.80
2019-05-30T15:23:49.045Z,34.90
2019-05-30T15:26:20.337Z,35.00
2019-05-30T15:28:51.913Z,35.10
2019-05-30T15:31:23.663Z,35.20
2019-05-30T15:33:54.931Z,35.20
2019-05-30T15:36:26.286Z,35.20
2019-05-30T15:38:57.759Z,35.20
2019-05-30T15:41:29.209Z,35.40
2019-05-30T15:44:00.835Z,35.30
2019-05-30T15:46:32.528Z,35.20
2019-05-30T15:49:04.279Z,35.20
2019-05-30T15:51:35.672Z,35.40
2019-05-30T15:54:07.299Z,35.50
2019-05-30T15:56:38.963Z,35.50
2019-05-30T15:59:11.557Z,35.60
2019-05-30T16:01:43.051Z,35.80
2019-05-30T16:04:14.859Z,35.70
2019-05-30T16:06:46.224Z,35.80
2019-05-30T16:09:18.817Z,36.00
2019-05-30T16:11:50.172Z,36.00
2019-05-30T16:14:21.688Z,36.20
2019-05-30T16:16:52.930Z,36.40
2019-05-30T16:19:26.411Z,36.50
2019-05-30T16:21:57.464Z,36.70
2019-05-30T16:24:29.568Z,36.70
2019-05-30T16:27:02.173Z,36.90
2019-05-30T16:29:33.695Z,37.10
2019-05-30T16:32:05.054Z,37.70
2019-05-30T16:34:36.562Z,37.20
2019-05-30T16:37:07.911Z,37.40
2019-05-30T16:39:39.592Z,37.50
2019-05-30T16:42:11.146Z,37.70
2019-05-30T16:44:42.555Z,37.50
2019-05-30T16:47:16.459Z,37.80
2019-05-30T16:49:48.089Z,37.80
2019-05-30T16:52:19.362Z,38.10
2019-05-30T16:54:50.935Z,38.30
2019-05-30T16:57:22.731Z,38.50
2019-05-30T16:59:54.361Z,38.70
2019-05-30T17:02:26.790Z,38.80
2019-05-30T17:04:58.481Z,38.90
2019-05-30T17:07:30.046Z,39.10
2019-05-30T17:10:01.268Z,39.10
2019-05-30T17:12:32.966Z,39.20
2019-05-30T17:15:05.431Z,39.30
2019-05-30T17:17:37.524Z,39.40
2019-05-30T17:20:10.917Z,39.50
2019-05-30T17:22:42.470Z,40.30
2019-05-30T17:25:14.160Z,39.60
2019-05-30T17:27:45.720Z,39.80
2019-05-30T17:30:17.745Z,40.10
2019-05-30T17:32:49.016Z,40.20
2019-05-30T17:35:20.410Z,41.00
2019-05-30T17:37:52.210Z,40.40
2019-05-30T17:40:39.092Z,40.60
2019-05-30T17:42:56.642Z,40.70
2019-05-30T17:45:29.328Z,40.70
2019-05-30T17:48:15.646Z,41.00
2019-05-30T17:50:33.997Z,41.20
2019-05-30T17:53:05.449Z,41.50
2019-05-30T17:55:37.210Z,41.60
2019-05-30T17:58:10.391Z,41.70
2019-05-30T18:00:42.177Z,41.90
2019-05-30T18:03:13.847Z,42.20
2019-05-30T18:05:45.248Z,42.50
2019-05-30T18:08:16.820Z,42.70
2019-05-30T18:10:53.611Z,43.10
2019-05-30T18:13:21.294Z,43.40
2019-05-30T18:15:52.795Z,43.70
2019-05-30T18:18:25.319Z,43.90
2019-05-30T18:20:57.010Z,44.30
2019-05-30T18:23:29.603Z,44.50
2019-05-30T18:26:01.155Z,45.50
2019-05-30T18:28:33.011Z,45.00
2019-05-30T18:31:04.395Z,45.40
2019-05-30T18:33:35.962Z,45.60
2019-05-30T18:36:07.359Z,45.90
2019-05-30T18:38:38.864Z,46.20
2019-05-30T18:41:15.678Z,46.40
2019-05-30T18:43:44.985Z,46.70
2019-05-30T18:46:17.669Z,47.00
2019-05-30T18:48:49.160Z,47.40
2019-05-30T18:51:20.734Z,47.70
2019-05-30T18:53:52.033Z,47.90
2019-05-30T18:56:24.494Z,48.30
2019-05-30T18:58:55.915Z,48.60
2019-05-30T19:01:27.410Z,48.90
2019-05-30T19:03:59.733Z,49.40
2019-05-30T19:06:31.945Z,49.80
2019-05-30T19:09:04.288Z,50.30
2019-05-30T19:11:37.006Z,51.20
2019-05-30T19:14:09.023Z,51.10
2019-05-30T19:16:40.530Z,51.50
2019-05-30T19:19:11.906Z,51.90
2019-05-30T19:21:43.800Z,52.40
2019-05-30T19:24:15.059Z,52.70
2019-05-30T19:26:46.683Z,53.10
2019-05-30T19:29:18.962Z,53.40
2019-05-30T19:31:50.463Z,53.70
2019-05-30T19:34:21.949Z,54.00
2019-05-30T19:36:53.515Z,54.40
2019-05-30T19:39:25.017Z,54.60
2019-05-30T19:41:57.648Z,54.90
2019-05-30T19:44:29.956Z,55.20
2019-05-30T19:47:01.901Z,55.60
2019-05-30T19:49:34.547Z,55.90
2019-05-30T19:52:06.093Z,56.00
2019-05-30T19:54:37.511Z,56.10
2019-05-30T19:57:09.135Z,56.30
2019-05-30T19:59:40.562Z,56.60
2019-05-30T20:02:11.960Z,56.80
2019-05-30T20:04:43.798Z,57.10
2019-05-30T20:07:15.037Z,57.40
2019-05-30T20:10:00.464Z,57.50
2019-05-30T20:12:19.275Z,57.80
2019-05-30T20:14:50.750Z,58.10
2019-05-30T20:17:22.475Z,58.40
2019-05-30T20:19:54.591Z,58.60
2019-05-30T20:22:26.547Z,58.70
2019-05-30T20:24:57.896Z,58.70
2019-05-30T20:27:29.205Z,58.60
2019-05-30T20:30:00.664Z,58.60
2019-05-30T20:32:32.359Z,58.50
2019-05-30T20:35:04.591Z,58.40
2019-05-30T20:37:36.792Z,58.30
2019-05-30T20:40:08.523Z,58.10
2019-05-30T20:42:41.063Z,58.00
2019-05-30T20:45:13.821Z,57.90
2019-05-30T20:47:45.330Z,57.70
2019-05-30T20:50:18.247Z,57.60
2019-05-30T20:52:49.542Z,57.70
2019-05-30T20:55:21.111Z,57.70
2019-05-30T20:57:52.494Z,57.70
2019-05-30T21:00:35.624Z,57.70
2019-05-30T21:03:07.060Z,57.70
2019-05-30T21:05:39.561Z,57.70
2019-05-30T21:08:11.178Z,57.70
2019-05-30T21:10:44.603Z,57.70
2019-05-30T21:13:17.106Z,57.70
2019-05-30T21:15:49.642Z,57.80
2019-05-30T21:18:21.134Z,57.80
2019-05-30T21:20:52.724Z,57.90
2019-05-30T21:23:24.041Z,57.80
2019-05-30T21:25:55.606Z,58.30
2019-05-30T21:28:27.475Z,57.80
2019-05-30T21:30:58.939Z,57.80
2019-05-30T21:33:31.217Z,57.80
2019-05-30T21:36:02.771Z,57.80
2019-05-30T21:38:34.410Z,57.90
2019-05-30T21:41:05.870Z,57.80
2019-05-30T21:43:38.246Z,57.70
2019-05-30T21:46:10.674Z,57.80
2019-05-30T21:48:44.815Z,57.80
2019-05-30T21:51:16.248Z,57.90
2019-05-30T21:53:47.760Z,57.80
2019-05-30T21:56:19.102Z,57.90
2019-05-30T21:58:50.518Z,57.90
2019-05-30T22:01:30.205Z,58.10
2019-05-30T22:04:02.393Z,58.10
2019-05-30T22:06:34.460Z,58.20
2019-05-30T22:09:10.122Z,58.30
2019-05-30T22:11:41.705Z,58.50
2019-05-30T22:14:13.299Z,58.60
2019-05-30T22:16:45.898Z,58.80
2019-05-30T22:19:17.409Z,58.90
2019-05-30T22:21:50.181Z,59.10
2019-05-30T22:24:22.692Z,59.10
2019-05-30T22:26:54.148Z,59.20
2019-05-30T22:29:25.783Z,59.30
2019-05-30T22:31:57.755Z,59.50
2019-05-30T22:34:29.502Z,59.60
2019-05-30T22:37:01.178Z,59.60
2019-05-30T22:39:32.525Z,59.70
2019-05-30T22:42:04.093Z,59.70
2019-05-30T22:44:35.581Z,59.80
2019-05-30T22:47:07.114Z,59.80
2019-05-30T22:49:38.503Z,59.80
2019-05-30T22:52:10.621Z,59.90
2019-05-30T22:54:42.314Z,60.00
2019-05-30T22:57:13.569Z,60.00
2019-05-30T22:59:46.501Z,60.00
2019-05-30T23:02:19.322Z,60.30
2019-05-30T23:04:50.833Z,60.00
2019-05-30T23:07:22.110Z,60.20
2019-05-30T23:09:53.973Z,60.10
2019-05-30T23:12:26.745Z,60.20
2019-05-30T23:14:58.162Z,60.20
2019-05-30T23:17:29.744Z,60.30
2019-05-30T23:20:01.594Z,60.30
2019-05-30T23:22:33.385Z,60.30
2019-05-30T23:25:05.195Z,60.40
2019-05-30T23:27:36.840Z,60.30
2019-05-30T23:30:08.623Z,60.40
2019-05-30T23:32:40.471Z,60.50
2019-05-30T23:35:14.071Z,60.60
2019-05-30T23:37:46.419Z,60.50
2019-05-30T23:40:17.618Z,60.70
2019-05-30T23:42:48.994Z,61.50
2019-05-30T23:45:20.494Z,60.80
2019-05-30T23:47:52.087Z,60.90
2019-05-30T23:50:23.587Z,60.90
2019-05-30T23:52:56.188Z,61.10
2019-05-30T23:55:27.813Z,61.00
2019-05-30T23:57:59.167Z,61.10
